Time;durP1;ratioP1;P1;durP2;ratioP2;P2;SDS_P1;SDS_P2;PMS_P1;PMS_P2;Temp;Humidity;BMP_temperature;BMP_pressure;BME280_temperature;BME280_humidity;BME280_pressure;Samples;Min_cycle;Max_cycle;Signal;HPM_P1;HPM_P2
2022/04/27 00:00:30;;;;;;;10.10;4.43;;;6.50;99.90;;;;;;5114992;28;20047;-71
2022/04/27 00:02:56;;;;;;;5.80;4.18;;;6.50;99.90;;;;;;5115019;28;20047;-71
2022/04/27 00:05:23;;;;;;;9.02;4.05;;;6.40;99.90;;;;;;5114879;28;20046;-71
2022/04/27 00:07:48;;;;;;;6.30;3.83;;;6.40;99.90;;;;;;5116077;28;20510;-71
2022/04/27 00:10:14;;;;;;;9.00;4.45;;;6.40;99.90;;;;;;5114696;28;20040;-71
2022/04/27 00:12:40;;;;;;;7.70;4.30;;;6.40;99.90;;;;;;5114739;28;20067;-71
2022/04/27 00:15:07;;;;;;;7.07;4.10;;;6.40;99.90;;;;;;5114606;28;20035;-71
2022/04/27 00:17:33;;;;;;;9.30;4.50;;;6.40;99.90;;;;;;5115108;28;20037;-70
2022/04/27 00:19:59;;;;;;;8.57;4.90;;;6.30;99.90;;;;;;5114868;28;20601;-71
2022/04/27 00:22:25;;;;;;;9.48;4.97;;;6.30;99.90;;;;;;5114818;28;20070;-71
2022/04/27 00:24:50;;;;;;;9.27;4.90;;;6.20;99.90;;;;;;5114427;28;20407;-71
2022/04/27 00:27:16;;;;;;;8.20;4.47;;;6.20;99.90;;;;;;5114453;28;20036;-71
2022/04/27 00:29:42;;;;;;;11.13;5.32;;;6.20;99.90;;;;;;5114328;28;20044;-71
2022/04/27 00:32:08;;;;;;;10.93;4.40;;;6.20;99.90;;;;;;5114598;28;20032;-71
2022/04/27 00:34:33;;;;;;;9.48;5.10;;;6.10;99.90;;;;;;5114462;28;20040;-71
2022/04/27 00:36:59;;;;;;;10.90;5.13;;;6.10;99.90;;;;;;5114261;28;20577;-71
2022/04/27 00:39:25;;;;;;;6.70;4.13;;;6.00;99.90;;;;;;5114218;28;20050;-71
2022/04/27 00:41:59;;;;;;;9.02;4.90;;;6.00;99.90;;;;;;5097430;28;20051;-71
2022/04/27 00:44:30;;;;;;;14.63;5.88;;;6.00;99.90;;;;;;5114313;28;20050;-71
2022/04/27 00:46:55;;;;;;;8.25;5.05;;;6.00;99.90;;;;;;5114330;28;20483;-71
2022/04/27 00:49:21;;;;;;;7.68;4.72;;;5.90;99.90;;;;;;5113942;28;20054;-71
2022/04/27 00:51:48;;;;;;;10.15;4.75;;;5.90;99.90;;;;;;5113081;28;20040;-71
2022/04/27 00:54:15;;;;;;;10.60;4.70;;;5.90;99.90;;;;;;5113818;28;20161;-71
2022/04/27 00:56:42;;;;;;;8.05;5.30;;;5.90;99.90;;;;;;5097268;28;20040;-71
2022/04/27 00:59:09;;;;;;;9.32;5.32;;;5.80;99.90;;;;;;5114068;28;20122;-71
2022/04/27 01:01:34;;;;;;;8.45;4.75;;;5.80;99.90;;;;;;5113758;28;20035;-71
2022/04/27 01:04:00;;;;;;;8.18;5.18;;;5.80;99.90;;;;;;5113680;28;20035;-71
2022/04/27 01:06:27;;;;;;;9.82;4.78;;;5.80;99.90;;;;;;5096677;28;20039;-71
2022/04/27 01:08:53;;;;;;;8.43;5.00;;;5.90;99.90;;;;;;5113500;28;20494;-71
2022/04/27 01:11:19;;;;;;;6.68;4.95;;;5.90;99.90;;;;;;5113600;28;20488;-71
2022/04/27 01:13:45;;;;;;;8.52;5.35;;;5.90;99.90;;;;;;5113463;28;20032;-71
2022/04/27 01:16:11;;;;;;;7.18;5.00;;;6.00;99.90;;;;;;5113447;28;20036;-71
2022/04/27 01:18:36;;;;;;;8.25;4.95;;;6.00;99.90;;;;;;5113657;28;20036;-71
2022/04/27 01:21:06;;;;;;;7.93;4.90;;;6.00;99.90;;;;;;5113363;28;20123;-71
2022/04/27 01:23:31;;;;;;;9.88;5.32;;;6.00;99.90;;;;;;5113264;28;20048;-71
2022/04/27 01:26:05;;;;;;;8.25;4.95;;;6.00;99.90;;;;;;5113261;28;20049;-71
2022/04/27 01:28:32;;;;;;;6.75;5.15;;;6.00;99.90;;;;;;5113180;28;20042;-71
2022/04/27 01:31:03;;;;;;;8.98;4.95;;;6.00;99.90;;;;;;5113454;28;20039;-71
2022/04/27 01:33:35;;;;;;;7.72;5.13;;;6.10;99.90;;;;;;5113118;28;20039;-71
2022/04/27 01:36:03;;;;;;;9.20;5.45;;;6.20;99.90;;;;;;5113153;28;20096;-71
2022/04/27 01:38:39;;;;;;;7.65;5.15;;;6.20;99.90;;;;;;5113284;28;20495;-71
2022/04/27 01:41:05;;;;;;;9.68;5.50;;;6.20;99.90;;;;;;5113009;28;20031;-71
2022/04/27 01:43:33;;;;;;;8.68;5.15;;;6.30;99.90;;;;;;5095953;28;20126;-71
2022/04/27 01:45:59;;;;;;;13.02;6.10;;;6.30;99.90;;;;;;5112927;28;20032;-71
2022/04/27 01:48:26;;;;;;;12.75;5.55;;;6.30;99.90;;;;;;5112815;28;20084;-71
2022/04/27 01:50:52;;;;;;;7.38;5.40;;;6.40;99.90;;;;;;5112876;28;20546;-71
2022/04/27 01:56:01;;;;;;;10.13;5.28;;;6.40;99.90;;;;;;5112720;28;20043;-71
2022/04/27 01:58:27;;;;;;;10.30;5.63;;;6.50;99.90;;;;;;5112962;28;20035;-71
2022/04/27 02:00:53;;;;;;;9.70;5.57;;;6.40;99.90;;;;;;5095733;28;20043;-71
2022/04/27 02:03:21;;;;;;;9.15;5.15;;;6.40;99.90;;;;;;5112456;28;20031;-71
2022/04/27 02:05:47;;;;;;;11.30;5.93;;;6.50;99.90;;;;;;5112624;28;20039;-71
2022/04/27 02:08:12;;;;;;;12.02;6.32;;;6.50;99.90;;;;;;5112613;28;20054;-71
2022/04/27 02:10:38;;;;;;;9.40;5.50;;;6.50;99.90;;;;;;5095605;28;20043;-71
2022/04/27 02:13:05;;;;;;;11.80;6.90;;;6.60;99.90;;;;;;5112456;28;20039;-71
2022/04/27 02:15:32;;;;;;;9.52;6.07;;;6.60;99.90;;;;;;5112778;28;20043;-71
2022/04/27 02:17:57;;;;;;;14.13;6.70;;;6.60;99.90;;;;;;5112413;28;20081;-71
2022/04/27 02:20:23;;;;;;;11.63;6.72;;;6.60;99.90;;;;;;5112407;28;20039;-71
2022/04/27 02:22:50;;;;;;;12.63;7.30;;;6.70;99.90;;;;;;5112515;28;20082;-71
2022/04/27 02:25:15;;;;;;;16.15;6.57;;;6.60;99.90;;;;;;5112607;28;20065;-71
2022/04/27 02:27:42;;;;;;;13.30;7.20;;;6.70;99.90;;;;;;5112303;28;20043;-71
2022/04/27 02:30:09;;;;;;;12.90;7.40;;;6.70;99.90;;;;;;5112276;28;20044;-71
2022/04/27 02:32:34;;;;;;;10.20;6.72;;;6.70;99.90;;;;;;5112250;28;20144;-71
2022/04/27 02:35:00;;;;;;;10.38;7.25;;;6.70;99.90;;;;;;5112234;28;20119;-71
2022/04/27 02:37:26;;;;;;;11.13;6.53;;;6.70;99.90;;;;;;5112249;28;20109;-71
2022/04/27 02:39:52;;;;;;;11.85;6.75;;;6.60;99.90;;;;;;5112526;28;20039;-71
2022/04/27 02:42:17;;;;;;;9.98;6.75;;;6.70;99.90;;;;;;5112242;28;20506;-71
2022/04/27 02:44:44;;;;;;;11.48;6.82;;;6.70;99.90;;;;;;5112114;28;20095;-71
2022/04/27 02:47:09;;;;;;;8.38;6.63;;;6.70;99.90;;;;;;5112154;28;20507;-71
2022/04/27 02:52:19;;;;;;;11.07;7.15;;;6.60;99.90;;;;;;5112143;28;20131;-71
2022/04/27 02:54:45;;;;;;;10.88;6.85;;;6.60;99.90;;;;;;5111863;28;20115;-71
2022/04/27 02:57:10;;;;;;;11.07;7.00;;;6.60;99.90;;;;;;5112077;28;20039;-71
2022/04/27 02:59:36;;;;;;;8.95;6.82;;;6.60;99.90;;;;;;5112060;28;20122;-71
2022/04/27 03:02:02;;;;;;;10.80;6.25;;;6.60;99.90;;;;;;5112033;28;20069;-71
2022/04/27 03:04:27;;;;;;;8.70;6.80;;;6.60;99.90;;;;;;5111939;28;20047;-71
2022/04/27 03:06:53;;;;;;;12.00;7.03;;;6.70;99.90;;;;;;5111970;28;20039;-71
2022/04/27 03:09:19;;;;;;;10.13;6.55;;;6.70;99.90;;;;;;5112024;28;20046;-71
2022/04/27 03:11:44;;;;;;;12.98;6.85;;;6.70;99.90;;;;;;5112200;28;20073;-71
2022/04/27 03:14:10;;;;;;;8.90;7.20;;;6.70;99.90;;;;;;5112090;28;20515;-71
2022/04/27 03:16:35;;;;;;;12.27;7.68;;;6.70;99.90;;;;;;5115357;28;20437;-71
2022/04/27 03:19:01;;;;;;;11.43;7.50;;;6.70;99.90;;;;;;5115730;28;20418;-71
2022/04/27 03:21:29;;;;;;;9.32;6.80;;;6.70;99.90;;;;;;5116032;28;20039;-71
2022/04/27 03:23:56;;;;;;;11.50;6.70;;;6.70;99.90;;;;;;5116426;28;20107;-71
2022/04/27 03:26:21;;;;;;;13.57;7.30;;;6.80;99.90;;;;;;5115690;28;20048;-71
2022/04/27 03:28:47;;;;;;;9.32;7.00;;;6.80;99.90;;;;;;5115509;28;20040;-71
2022/04/27 03:31:13;;;;;;;11.25;6.80;;;6.80;99.90;;;;;;5098550;28;20146;-71
2022/04/27 03:33:39;;;;;;;10.20;7.30;;;6.80;99.90;;;;;;5115663;28;20183;-71
2022/04/27 03:36:06;;;;;;;12.10;7.63;;;6.90;99.90;;;;;;5115686;28;20050;-71
2022/04/27 03:38:31;;;;;;;10.75;7.28;;;6.90;99.90;;;;;;5115655;28;20043;-71
2022/04/27 03:40:57;;;;;;;15.98;8.45;;;6.90;99.90;;;;;;5115348;28;20406;-71
2022/04/27 03:43:23;;;;;;;13.57;7.60;;;6.90;99.90;;;;;;5115329;28;20120;-71
2022/04/27 03:45:49;;;;;;;12.55;7.50;;;6.90;99.90;;;;;;5115329;28;20076;-71
2022/04/27 03:48:14;;;;;;;13.02;7.47;;;6.90;99.90;;;;;;5115248;28;20040;-71
2022/04/27 03:50:40;;;;;;;14.07;8.27;;;6.90;99.90;;;;;;5115166;28;20134;-71
2022/04/27 03:53:06;;;;;;;13.43;7.90;;;6.90;99.90;;;;;;5098156;28;20028;-71
2022/04/27 03:55:33;;;;;;;15.18;7.55;;;7.00;99.90;;;;;;5115141;28;20457;-71
2022/04/27 03:58:01;;;;;;;10.10;6.80;;;7.00;99.90;;;;;;5098021;28;20035;-71
2022/04/27 04:00:27;;;;;;;12.43;7.35;;;7.00;99.90;;;;;;5098008;28;20433;-71
2022/04/27 04:02:52;;;;;;;11.00;7.10;;;7.00;99.90;;;;;;5114917;28;20089;-71
2022/04/27 04:05:18;;;;;;;12.38;7.63;;;7.10;99.90;;;;;;5114847;28;20139;-71
2022/04/27 04:07:43;;;;;;;14.90;7.78;;;7.00;99.90;;;;;;5114914;28;20031;-71
2022/04/27 04:10:09;;;;;;;12.20;7.20;;;7.00;99.90;;;;;;5097761;28;20108;-71
2022/04/27 04:12:35;;;;;;;10.27;7.38;;;7.10;99.90;;;;;;5114818;28;20031;-71
2022/04/27 04:15:02;;;;;;;11.35;6.95;;;7.10;99.90;;;;;;5114628;28;20118;-71
2022/04/27 04:17:27;;;;;;;14.55;7.68;;;7.00;99.90;;;;;;5114716;28;20179;-71
2022/04/27 04:19:53;;;;;;;14.10;7.18;;;7.00;99.90;;;;;;5114635;28;20103;-71
2022/04/27 04:22:18;;;;;;;9.77;7.28;;;7.00;99.90;;;;;;5114632;28;20043;-71
2022/04/27 04:30:12;;;;;;;10.73;6.97;;;7.10;99.90;;;;;;5114321;28;20040;-71
2022/04/27 04:32:38;;;;;;;11.68;7.40;;;7.10;99.90;;;;;;5114434;28;20036;-71
2022/04/27 04:35:04;;;;;;;10.25;7.60;;;7.10;99.90;;;;;;5114270;28;20031;-71
2022/04/27 04:37:31;;;;;;;9.15;6.97;;;7.10;99.90;;;;;;5097292;28;20082;-71
2022/04/27 04:39:57;;;;;;;13.18;7.35;;;7.20;99.90;;;;;;5114515;28;20040;-71
2022/04/27 04:42:23;;;;;;;13.40;7.97;;;7.20;99.90;;;;;;5114169;28;20039;-71
2022/04/27 04:44:48;;;;;;;13.82;7.47;;;7.20;99.90;;;;;;5114319;28;20032;-71
2022/04/27 04:47:14;;;;;;;13.05;7.40;;;7.30;99.90;;;;;;5097408;28;20126;-71
2022/04/27 04:49:39;;;;;;;10.30;6.97;;;7.30;99.90;;;;;;5114117;28;20130;-71
2022/04/27 04:52:07;;;;;;;12.02;6.97;;;7.30;99.90;;;;;;5113961;28;20150;-71
2022/04/27 04:54:33;;;;;;;11.32;7.15;;;7.30;99.90;;;;;;5113720;28;20054;-71
2022/04/27 04:56:59;;;;;;;12.88;6.57;;;7.40;99.90;;;;;;5114343;28;20023;-71
2022/04/27 04:59:24;;;;;;;13.18;7.07;;;7.40;99.90;;;;;;5113844;28;20039;-70
2022/04/27 05:01:50;;;;;;;10.80;6.80;;;7.50;99.90;;;;;;5115024;28;20039;-70
2022/04/27 05:04:15;;;;;;;14.57;8.27;;;7.50;99.90;;;;;;5113720;28;20089;-70
2022/04/27 05:06:43;;;;;;;10.75;7.00;;;7.50;99.90;;;;;;5113717;28;20035;-70
2022/04/27 05:09:09;;;;;;;9.45;6.78;;;7.60;99.90;;;;;;5113553;28;20043;-70
2022/04/27 05:11:34;;;;;;;12.23;7.55;;;7.60;99.90;;;;;;5114197;28;20040;-70
2022/04/27 05:14:00;;;;;;;9.45;6.80;;;7.60;99.90;;;;;;5113522;28;20042;-70
2022/04/27 05:16:26;;;;;;;14.25;7.20;;;7.60;99.90;;;;;;5113523;28;20038;-70
2022/04/27 05:18:51;;;;;;;11.98;7.00;;;7.70;99.90;;;;;;5113749;28;20043;-70
2022/04/27 05:21:17;;;;;;;10.13;6.47;;;7.80;99.90;;;;;;5096733;28;20423;-70
2022/04/27 05:23:42;;;;;;;14.40;7.40;;;7.80;99.90;;;;;;5113542;28;20491;-70
2022/04/27 05:26:08;;;;;;;11.07;6.80;;;7.80;99.90;;;;;;5113578;28;20515;-70
2022/04/27 05:34:02;;;;;;;10.95;6.80;;;7.90;99.90;;;;;;5113117;28;20039;-70
2022/04/27 05:36:27;;;;;;;14.57;6.88;;;8.00;99.90;;;;;;5113160;28;20040;-70
2022/04/27 05:38:53;;;;;;;9.30;6.13;;;8.00;99.90;;;;;;5112716;28;20050;-70
2022/04/27 05:41:19;;;;;;;14.27;6.97;;;8.00;99.90;;;;;;5113060;28;20039;-70
2022/04/27 05:43:45;;;;;;;9.68;6.38;;;8.10;99.90;;;;;;5095999;28;20043;-70
2022/04/27 05:46:10;;;;;;;9.32;6.25;;;8.10;99.90;;;;;;5113197;28;20035;-70
2022/04/27 05:48:36;;;;;;;9.77;6.47;;;8.10;99.90;;;;;;5112866;28;20043;-70
2022/04/27 05:51:03;;;;;;;9.43;6.30;;;8.20;99.90;;;;;;5112872;28;20122;-70
2022/04/27 05:53:28;;;;;;;9.50;5.93;;;8.20;99.90;;;;;;5112664;28;20036;-70
2022/04/27 05:55:54;;;;;;;9.73;6.82;;;8.20;99.90;;;;;;5112802;28;20040;-70
2022/04/27 05:58:19;;;;;;;15.63;6.80;;;8.30;99.90;;;;;;5112995;28;20039;-70
2022/04/27 06:00:46;;;;;;;8.05;5.93;;;8.30;99.90;;;;;;5095768;28;20044;-70
2022/04/27 06:03:12;;;;;;;9.75;5.72;;;8.30;99.90;;;;;;5112587;28;20501;-70
2022/04/27 06:05:37;;;;;;;11.65;5.63;;;8.40;99.90;;;;;;5095726;28;20040;-70
2022/04/27 06:08:03;;;;;;;9.20;5.55;;;8.40;99.90;;;;;;5112871;28;20070;-70
2022/04/27 06:10:29;;;;;;;7.60;5.70;;;8.50;99.90;;;;;;5113314;28;20440;-70
2022/04/27 06:12:54;;;;;;;8.85;5.57;;;8.50;99.90;;;;;;5112556;28;20108;-70
2022/04/27 06:15:20;;;;;;;10.18;6.03;;;8.60;99.90;;;;;;5112729;28;20063;-70
2022/04/27 06:17:45;;;;;;;9.77;5.32;;;8.60;99.90;;;;;;5112767;28;20484;-70
2022/04/27 06:20:11;;;;;;;9.18;5.22;;;8.70;99.90;;;;;;5112468;28;20518;-70
2022/04/27 06:22:37;;;;;;;10.80;5.28;;;8.80;99.90;;;;;;5112672;28;20044;-70
2022/04/27 06:25:06;;;;;;;10.60;5.50;;;8.80;99.90;;;;;;5112410;28;20036;-70
2022/04/27 06:27:32;;;;;;;9.77;5.63;;;8.80;99.90;;;;;;5112547;28;20047;-70
2022/04/27 06:29:58;;;;;;;8.07;5.72;;;8.90;99.90;;;;;;5112309;28;20565;-70
2022/04/27 06:32:23;;;;;;;13.30;5.68;;;8.90;99.90;;;;;;5112599;28;20036;-72
2022/04/27 06:34:49;;;;;;;12.05;5.25;;;8.90;99.90;;;;;;5112517;28;20399;-70
2022/04/27 06:37:15;;;;;;;10.98;6.00;;;9.00;99.90;;;;;;5112285;28;20479;-70
2022/04/27 06:39:40;;;;;;;7.88;5.18;;;9.00;99.90;;;;;;5112243;28;20134;-70
2022/04/27 06:42:07;;;;;;;11.27;4.88;;;9.10;99.90;;;;;;5112210;28;20035;-70
2022/04/27 06:44:35;;;;;;;8.77;4.20;;;9.10;99.90;;;;;;5095184;28;20032;-70
2022/04/27 06:47:01;;;;;;;5.82;3.90;;;9.20;99.90;;;;;;5112231;28;20043;-70
2022/04/27 06:49:26;;;;;;;7.60;3.90;;;9.20;99.90;;;;;;5112079;28;20051;-70
2022/04/27 06:51:52;;;;;;;8.77;4.00;;;9.30;99.90;;;;;;5116285;28;20126;-71
2022/04/27 06:54:18;;;;;;;7.25;4.10;;;9.40;99.90;;;;;;5116062;28;20066;-71
2022/04/27 06:56:43;;;;;;;7.15;3.50;;;9.40;99.90;;;;;;5116229;28;20057;-70
2022/04/27 06:59:09;;;;;;;8.52;4.00;;;9.40;99.90;;;;;;5116206;28;20036;-70
2022/04/27 07:01:35;;;;;;;7.30;3.92;;;9.50;99.90;;;;;;5116241;28;20043;-70
2022/04/27 07:04:07;;;;;;;7.05;3.83;;;9.50;99.90;;;;;;5116027;28;20035;-70
2022/04/27 07:06:33;;;;;;;8.27;4.30;;;9.50;99.90;;;;;;5116131;28;20077;-70
2022/04/27 07:08:59;;;;;;;9.88;4.25;;;9.60;99.90;;;;;;5116247;28;20067;-70
2022/04/27 07:11:25;;;;;;;6.63;3.80;;;9.70;99.90;;;;;;5099117;28;20039;-70
2022/04/27 07:13:50;;;;;;;7.28;3.78;;;9.70;99.90;;;;;;5116431;28;20081;-70
2022/04/27 07:16:16;;;;;;;5.68;2.60;;;9.80;99.90;;;;;;5098875;28;20074;-70
2022/04/27 07:18:42;;;;;;;6.55;2.47;;;9.90;99.90;;;;;;5115814;28;20040;-70
2022/04/27 07:21:08;;;;;;;5.88;1.73;;;9.90;99.90;;;;;;5115786;28;20032;-70
2022/04/27 07:23:34;;;;;;;6.95;1.95;;;10.00;99.90;;;;;;5115627;28;20388;-70
2022/04/27 07:25:59;;;;;;;6.03;2.05;;;10.00;99.90;;;;;;5115738;28;20039;-70
2022/04/27 07:28:25;;;;;;;3.53;1.25;;;10.10;99.90;;;;;;5115616;28;20070;-70
2022/04/27 07:30:51;;;;;;;4.68;1.63;;;10.20;99.90;;;;;;5098516;28;20043;-70
2022/04/27 07:33:16;;;;;;;5.75;1.40;;;10.30;99.90;;;;;;5115722;28;20044;-70
2022/04/27 07:35:42;;;;;;;4.70;1.40;;;10.40;99.90;;;;;;5115492;28;20491;-70
2022/04/27 07:38:07;;;;;;;6.65;1.10;;;10.40;99.90;;;;;;5115774;28;20024;-70
2022/04/27 07:40:33;;;;;;;4.53;1.70;;;10.50;99.90;;;;;;5098406;28;20518;-70
2022/04/27 07:42:59;;;;;;;4.78;1.40;;;10.50;99.90;;;;;;5098345;28;20101;-70
2022/04/27 07:45:25;;;;;;;6.07;1.15;;;10.60;99.90;;;;;;5115295;28;20127;-70
2022/04/27 07:47:51;;;;;;;3.80;1.00;;;10.70;99.90;;;;;;5115301;28;20122;-70
2022/04/27 07:50:17;;;;;;;4.75;1.30;;;10.70;99.90;;;;;;5115184;28;20123;-70
2022/04/27 07:52:44;;;;;;;4.20;1.17;;;10.70;99.90;;;;;;5115130;28;20039;-70
2022/04/27 07:55:11;;;;;;;4.13;1.10;;;10.80;99.90;;;;;;5114982;28;20043;-70
2022/04/27 07:57:37;;;;;;;5.10;1.20;;;10.80;99.10;;;;;;5115062;28;20545;-70
2022/04/27 08:00:06;;;;;;;3.50;1.10;;;10.90;99.60;;;;;;5115073;28;20039;-70
2022/04/27 08:02:31;;;;;;;3.63;0.93;;;11.00;99.40;;;;;;5097882;28;20031;-70
2022/04/27 08:04:57;;;;;;;4.97;1.20;;;11.00;97.30;;;;;;5114923;28;20043;-71
2022/04/27 08:07:23;;;;;;;5.53;1.08;;;11.00;96.90;;;;;;5114896;28;20083;-71
2022/04/27 08:09:49;;;;;;;2.75;1.13;;;11.10;96.30;;;;;;5097768;28;20107;-71
2022/04/27 08:12:14;;;;;;;6.47;1.30;;;11.00;96.50;;;;;;5114814;28;20040;-71
2022/04/27 08:14:40;;;;;;;5.95;1.27;;;11.10;96.90;;;;;;5114642;28;20035;-71
2022/04/27 08:17:06;;;;;;;2.50;0.90;;;11.10;96.20;;;;;;5114748;28;20043;-71
2022/04/27 08:19:31;;;;;;;5.65;1.40;;;11.10;95.10;;;;;;5114744;28;20051;-71
2022/04/27 08:21:59;;;;;;;6.32;1.67;;;11.10;95.90;;;;;;5114867;28;20114;-71
2022/04/27 08:24:25;;;;;;;3.35;1.13;;;11.20;96.20;;;;;;5114505;28;20085;-71
2022/04/27 08:26:51;;;;;;;5.18;1.58;;;11.30;95.30;;;;;;5114522;28;20047;-71
2022/04/27 08:29:17;;;;;;;3.15;1.08;;;11.30;94.70;;;;;;5114387;28;20075;-71
2022/04/27 08:31:43;;;;;;;3.78;1.08;;;11.40;93.90;;;;;;5114368;28;20043;-71
2022/04/27 08:34:08;;;;;;;5.25;1.17;;;11.40;93.50;;;;;;5114381;28;20032;-71
2022/04/27 08:36:34;;;;;;;6.82;1.35;;;11.50;92.70;;;;;;5114301;28;20046;-71
2022/04/27 08:39:01;;;;;;;4.43;1.00;;;11.60;92.10;;;;;;5114536;28;20040;-71
2022/04/27 08:41:28;;;;;;;7.75;1.65;;;11.70;90.90;;;;;;5097278;28;20043;-71
2022/04/27 08:43:54;;;;;;;5.60;1.23;;;11.90;88.90;;;;;;5114466;28;20122;-71
2022/04/27 08:46:20;;;;;;;3.40;1.15;;;12.00;89.50;;;;;;5114401;28;20090;-71
2022/04/27 08:48:50;;;;;;;6.65;1.27;;;12.10;87.30;;;;;;5113967;28;20505;-71
2022/04/27 08:51:16;;;;;;;3.97;1.45;;;12.20;85.10;;;;;;5114306;28;20123;-71
2022/04/27 08:53:43;;;;;;;6.05;1.45;;;12.30;83.50;;;;;;5113779;28;20032;-71
2022/04/27 08:56:08;;;;;;;5.45;1.38;;;12.30;79.40;;;;;;5113962;28;20039;-71
2022/04/27 08:58:34;;;;;;;8.85;1.70;;;12.30;78.10;;;;;;5113838;28;20031;-71
2022/04/27 09:01:00;;;;;;;8.43;1.23;;;12.30;77.80;;;;;;5097162;28;20042;-71
2022/04/27 09:03:31;;;;;;;4.57;1.38;;;12.30;79.20;;;;;;5113719;28;20495;-71
2022/04/27 09:05:59;;;;;;;4.28;1.02;;;12.30;78.60;;;;;;5113732;28;20031;-70
2022/04/27 09:08:38;;;;;;;4.20;1.10;;;12.30;81.30;;;;;;5113745;28;20092;-70
2022/04/27 09:11:20;;;;;;;7.72;1.45;;;12.30;80.50;;;;;;5113578;28;20403;-70
2022/04/27 09:13:55;;;;;;;7.13;1.55;;;12.30;79.90;;;;;;5113024;28;20119;-71
2022/04/27 09:16:26;;;;;;;6.22;1.55;;;12.30;78.60;;;;;;5113724;28;20516;-71
2022/04/27 09:21:58;;;;;;;4.55;1.50;;;12.30;77.20;;;;;;5113431;28;20415;-71
2022/04/27 09:24:24;;;;;;;4.95;1.15;;;12.30;75.50;;;;;;5113345;28;20031;-71
2022/04/27 09:26:59;;;;;;;3.17;1.10;;;12.30;76.40;;;;;;5113312;28;20031;-71
2022/04/27 09:29:25;;;;;;;3.70;1.30;;;12.30;72.80;;;;;;5113202;28;20043;-70
2022/04/27 09:31:58;;;;;;;4.47;1.40;;;12.40;80.60;;;;;;5113258;28;20075;-70
2022/04/27 09:34:27;;;;;;;4.05;1.40;;;12.40;77.10;;;;;;5113183;28;20047;-70
2022/04/27 09:37:02;;;;;;;3.78;1.20;;;12.50;80.30;;;;;;5096473;28;20503;-70
2022/04/27 09:39:28;;;;;;;5.15;1.50;;;12.50;82.20;;;;;;5113420;28;20043;-70
2022/04/27 09:42:05;;;;;;;4.40;1.50;;;12.50;83.50;;;;;;5113089;28;20392;-71
2022/04/27 09:44:36;;;;;;;4.47;1.40;;;12.50;78.00;;;;;;5112982;28;20074;-71
2022/04/27 09:47:03;;;;;;;6.47;1.50;;;12.50;81.10;;;;;;5112932;28;20499;-70
2022/04/27 09:49:36;;;;;;;7.70;1.90;;;12.60;77.40;;;;;;5113070;28;20073;-71
2022/04/27 09:52:04;;;;;;;6.20;1.27;;;12.70;75.20;;;;;;5095924;28;20048;-71
2022/04/27 09:54:31;;;;;;;9.63;2.10;;;12.70;77.70;;;;;;5112597;28;20392;-71
2022/04/27 09:56:59;;;;;;;7.72;1.55;;;12.80;75.30;;;;;;5112812;28;20115;-71
2022/04/27 09:59:36;;;;;;;3.83;1.33;;;12.80;70.80;;;;;;5112775;28;20054;-71
2022/04/27 10:02:10;;;;;;;6.50;1.50;;;12.90;71.40;;;;;;5112778;28;20047;-70
2022/04/27 10:04:37;;;;;;;6.25;1.80;;;12.80;71.40;;;;;;5095703;28;20036;-71
2022/04/27 10:07:05;;;;;;;6.00;1.65;;;12.80;76.90;;;;;;5112888;28;20385;-71
2022/04/27 10:09:31;;;;;;;5.78;1.67;;;12.80;75.20;;;;;;5112861;28;20144;-71
2022/04/27 10:11:59;;;;;;;7.53;2.10;;;12.90;74.70;;;;;;5112558;28;20039;-72
2022/04/27 10:14:28;;;;;;;7.20;2.13;;;12.90;72.70;;;;;;5112702;28;20040;-71
2022/04/27 10:16:54;;;;;;;9.15;1.65;;;12.90;69.20;;;;;;5095499;28;20077;-72
2022/04/27 10:19:20;;;;;;;4.75;1.40;;;12.80;70.00;;;;;;5112520;28;20084;-71
2022/04/27 10:21:57;;;;;;;5.75;1.27;;;12.80;71.40;;;;;;5112552;28;20047;-71
2022/04/27 10:24:35;;;;;;;7.57;1.60;;;12.80;73.30;;;;;;5112772;28;20039;-71
2022/04/27 10:27:14;;;;;;;6.15;1.70;;;12.80;71.70;;;;;;5112413;28;20077;-71
2022/04/27 10:29:40;;;;;;;6.45;1.52;;;12.70;71.50;;;;;;5112291;28;20046;-71
2022/04/27 10:32:06;;;;;;;5.10;1.42;;;12.80;74.30;;;;;;5113497;28;20036;-71
2022/04/27 10:34:33;;;;;;;6.32;1.50;;;12.80;74.40;;;;;;5112678;28;20047;-71
2022/04/27 10:37:00;;;;;;;6.80;2.00;;;12.90;73.10;;;;;;5095496;28;20039;-71
2022/04/27 10:39:28;;;;;;;6.80;1.67;;;13.00;73.30;;;;;;5095703;28;20122;-71
2022/04/27 10:42:03;;;;;;;4.32;2.13;;;13.00;71.10;;;;;;5112602;28;20046;-71
2022/04/27 10:44:47;;;;;;;6.13;1.50;;;13.00;69.50;;;;;;5095275;28;20046;-71
2022/04/27 10:47:15;;;;;;;7.45;1.92;;;13.10;70.40;;;;;;5112177;28;20043;-71
2022/04/27 10:49:41;;;;;;;7.22;1.70;;;13.10;71.60;;;;;;5112118;28;20453;-71
2022/04/27 10:52:08;;;;;;;5.35;1.70;;;13.10;72.10;;;;;;5112460;28;20076;-71
2022/04/27 10:54:37;;;;;;;5.35;1.45;;;13.20;71.80;;;;;;5111922;28;20085;-71
2022/04/27 10:57:15;;;;;;;5.38;1.90;;;13.20;71.10;;;;;;5112120;28;20071;-71
2022/04/27 10:59:51;;;;;;;9.02;2.03;;;13.30;70.80;;;;;;5095094;28;20127;-71
2022/04/27 11:02:41;;;;;;;6.10;1.73;;;13.40;72.50;;;;;;5112126;28;20044;-71
2022/04/27 11:05:10;;;;;;;7.72;1.75;;;13.50;70.50;;;;;;5112296;28;20040;-71
2022/04/27 11:07:45;;;;;;;7.63;1.83;;;13.50;71.10;;;;;;5112613;28;20126;-71
2022/04/27 11:10:17;;;;;;;6.07;1.60;;;13.50;70.20;;;;;;5095096;28;20110;-71
2022/04/27 11:12:55;;;;;;;6.43;1.67;;;13.50;68.70;;;;;;5112115;28;20036;-71
2022/04/27 11:15:27;;;;;;;6.15;1.42;;;13.60;69.90;;;;;;5112134;28;20403;-71
2022/04/27 11:17:55;;;;;;;6.97;1.88;;;13.60;67.60;;;;;;5111993;28;20040;-71
2022/04/27 11:20:22;;;;;;;7.13;1.90;;;13.60;67.20;;;;;;5111914;28;20050;-71
2022/04/27 11:22:48;;;;;;;8.82;2.65;;;13.60;69.50;;;;;;5111968;28;20054;-71
2022/04/27 11:25:24;;;;;;;8.80;2.10;;;13.60;71.60;;;;;;5111854;28;20118;-71
2022/04/27 11:27:50;;;;;;;5.97;1.73;;;13.60;70.50;;;;;;5112070;28;20036;-71
2022/04/27 11:30:17;;;;;;;7.80;2.45;;;13.60;71.60;;;;;;5112011;28;20067;-71
2022/04/27 11:32:47;;;;;;;7.53;2.00;;;13.60;71.10;;;;;;5111797;28;20035;-71
2022/04/27 11:35:13;;;;;;;7.68;2.08;;;13.60;70.10;;;;;;5111677;28;20410;-71
2022/04/27 11:37:38;;;;;;;5.50;2.17;;;13.60;73.20;;;;;;5114852;28;20545;-71
2022/04/27 11:40:17;;;;;;;7.97;2.30;;;13.70;72.90;;;;;;5098748;28;20070;-72
2022/04/27 11:42:48;;;;;;;6.32;2.15;;;13.70;71.60;;;;;;5115415;28;20090;-72
2022/04/27 11:45:19;;;;;;;6.97;2.30;;;13.70;70.20;;;;;;5115273;28;20039;-72
2022/04/27 11:47:54;;;;;;;7.50;2.15;;;13.70;69.60;;;;;;5115344;28;20593;-72
2022/04/27 11:50:19;;;;;;;7.85;2.22;;;13.70;70.50;;;;;;5115299;28;20507;-71
2022/04/27 11:53:04;;;;;;;6.88;2.00;;;13.70;71.00;;;;;;5098795;28;20043;-71
2022/04/27 11:55:32;;;;;;;9.15;2.55;;;13.70;69.80;;;;;;5115141;28;20456;-71
2022/04/27 11:57:58;;;;;;;9.15;1.85;;;13.70;70.70;;;;;;5115360;28;20044;-71
2022/04/27 12:00:27;;;;;;;11.93;2.88;;;13.60;70.40;;;;;;5098040;28;20422;-71
2022/04/27 12:02:53;;;;;;;10.50;2.20;;;13.60;69.50;;;;;;5098478;28;20058;-71
2022/04/27 12:05:32;;;;;;;11.00;2.53;;;13.60;73.50;;;;;;5114762;28;20031;-71
2022/04/27 12:07:59;;;;;;;8.45;2.47;;;13.70;74.60;;;;;;5114719;28;20081;-71
2022/04/27 12:10:25;;;;;;;8.57;2.30;;;13.70;75.20;;;;;;5114914;28;20127;-71
2022/04/27 12:12:51;;;;;;;7.47;2.20;;;13.80;77.40;;;;;;5114751;28;20475;-71
2022/04/27 12:15:25;;;;;;;9.82;2.28;;;13.90;73.40;;;;;;5114686;28;20122;-70
2022/04/27 12:17:54;;;;;;;8.60;2.03;;;14.00;74.80;;;;;;5114747;28;20515;-71
2022/04/27 12:20:37;;;;;;;11.88;2.67;;;14.10;74.80;;;;;;5114667;28;20039;-70
2022/04/27 12:23:08;;;;;;;8.95;2.17;;;14.20;75.70;;;;;;5114851;28;20052;-70
2022/04/27 12:25:41;;;;;;;5.53;1.98;;;14.50;75.30;;;;;;5097672;28;20518;-70
2022/04/27 12:28:11;;;;;;;10.70;2.00;;;14.70;67.90;;;;;;5114538;28;20415;-70
2022/04/27 12:30:42;;;;;;;12.63;2.67;;;14.80;66.20;;;;;;5097442;28;20104;-71
2022/04/27 12:33:09;;;;;;;9.60;2.10;;;14.90;66.90;;;;;;5114368;28;20045;-71
2022/04/27 12:38:19;;;;;;;7.68;2.50;;;14.90;64.90;;;;;;5114325;28;20037;-71
2022/04/27 12:40:45;;;;;;;6.93;2.30;;;14.70;63.00;;;;;;5114495;28;20032;-70
2022/04/27 12:43:15;;;;;;;11.20;2.10;;;14.70;61.60;;;;;;5114245;28;20153;-70
2022/04/27 12:46:02;;;;;;;8.15;2.30;;;14.70;62.50;;;;;;5114305;28;20095;-71
2022/04/27 12:48:30;;;;;;;8.00;2.50;;;14.60;60.90;;;;;;5113097;28;20500;-71
2022/04/27 12:50:55;;;;;;;8.10;2.15;;;14.60;62.80;;;;;;5113987;28;20040;-70
2022/04/27 12:53:21;;;;;;;9.73;2.38;;;14.60;63.40;;;;;;5114303;28;20415;-71
2022/04/27 12:56:00;;;;;;;12.10;2.60;;;14.60;63.00;;;;;;5113976;28;20407;-71
2022/04/27 12:58:26;;;;;;;10.35;2.60;;;14.70;63.80;;;;;;5114160;28;20385;-71
2022/04/27 13:00:51;;;;;;;8.38;2.35;;;14.60;64.50;;;;;;5113896;28;20050;-71
2022/04/27 13:03:17;;;;;;;6.13;1.73;;;14.60;64.70;;;;;;5113713;28;20043;-71
2022/04/27 13:05:44;;;;;;;9.60;2.15;;;14.50;63.00;;;;;;5114066;28;20053;-71
2022/04/27 13:08:11;;;;;;;9.52;1.83;;;14.50;62.50;;;;;;5113765;28;20483;-71
2022/04/27 13:13:22;;;;;;;6.88;2.10;;;14.50;61.50;;;;;;5113584;28;20044;-71
2022/04/27 13:15:49;;;;;;;8.27;1.88;;;14.40;61.30;;;;;;5113492;28;20036;-71